Time;durP1;ratioP1;P1;durP2;ratioP2;P2;SDS_P1;SDS_P2;PMS_P1;PMS_P2;Temp;Humidity;BMP_temperature;BMP_pressure;BME280_temperature;BME280_humidity;BME280_pressure;Samples;Min_cycle;Max_cycle;Signal;HPM_P1;HPM_P2
2021/07/31 09:26:57;;;;;;;5.40;2.90;;;23.00;98.70;;;;;;5108364;27;21129;-54
2021/07/31 09:29:27;;;;;;;4.40;3.00;;;23.30;97.50;;;;;;5107904;28;20212;-53
2021/07/31 09:31:58;;;;;;;4.00;2.88;;;23.20;97.70;;;;;;5108459;28;20205;-51
2021/07/31 09:34:28;;;;;;;5.53;3.15;;;23.20;97.80;;;;;;5108086;28;20213;-51
2021/07/31 09:37:08;;;;;;;3.67;3.05;;;23.30;97.70;;;;;;5108211;28;20206;-53
2021/07/31 09:39:52;;;;;;;6.93;3.92;;;23.30;97.30;;;;;;5108050;28;20210;-50
2021/07/31 09:42:32;;;;;;;5.18;3.30;;;23.40;97.10;;;;;;5107723;28;20210;-53
2021/07/31 09:45:02;;;;;;;6.05;3.38;;;23.40;97.10;;;;;;5108175;28;20210;-51
2021/07/31 09:47:30;;;;;;;3.95;3.08;;;23.40;97.20;;;;;;5107919;28;20263;-53
2021/07/31 09:49:59;;;;;;;6.80;4.07;;;23.40;97.20;;;;;;5107982;28;20210;-56
2021/07/31 09:52:28;;;;;;;3.95;2.65;;;23.50;97.20;;;;;;5108236;28;20214;-55
2021/07/31 09:54:57;;;;;;;3.45;2.67;;;23.60;97.00;;;;;;5107811;28;20317;-49
2021/07/31 09:57:28;;;;;;;3.67;3.22;;;23.70;96.90;;;;;;5107642;28;20301;-52
2021/07/31 10:00:01;;;;;;;5.25;3.42;;;23.80;96.90;;;;;;5107772;28;20211;-49
2021/07/31 10:02:29;;;;;;;4.50;3.15;;;23.90;96.60;;;;;;5107818;28;20210;-54
2021/07/31 10:04:57;;;;;;;3.90;3.33;;;23.90;96.50;;;;;;5107745;28;20233;-50
2021/07/31 10:07:27;;;;;;;3.75;2.95;;;23.80;96.30;;;;;;5107665;28;20679;-50
2021/07/31 10:09:55;;;;;;;6.00;4.00;;;23.60;96.20;;;;;;5107600;28;20637;-54
2021/07/31 10:12:26;;;;;;;4.28;3.40;;;23.40;96.10;;;;;;5107570;28;20280;-51
2021/07/31 10:14:56;;;;;;;3.40;3.10;;;23.40;96.00;;;;;;5107265;28;20680;-53
2021/07/31 10:17:28;;;;;;;4.63;2.95;;;23.50;95.60;;;;;;5107097;28;20668;-53
2021/07/31 10:19:57;;;;;;;4.13;3.20;;;23.80;95.00;;;;;;5107006;28;20256;-53
2021/07/31 10:22:43;;;;;;;3.20;2.70;;;23.90;94.80;;;;;;5107377;28;20210;-54
2021/07/31 10:25:11;;;;;;;3.40;2.70;;;24.00;94.70;;;;;;5107059;28;20685;-48
2021/07/31 10:27:40;;;;;;;3.50;3.20;;;24.10;94.80;;;;;;5095063;28;20220;-54
2021/07/31 10:30:26;;;;;;;4.10;3.67;;;24.20;95.00;;;;;;5093605;28;20210;-52
2021/07/31 10:32:55;;;;;;;4.13;2.90;;;24.30;94.10;;;;;;5093443;28;20943;-52
2021/07/31 10:35:28;;;;;;;6.30;3.65;;;24.40;94.10;;;;;;5093367;28;20234;-51
2021/07/31 10:37:57;;;;;;;5.32;3.55;;;24.70;93.60;;;;;;5093440;28;20206;-51
2021/07/31 10:40:56;;;;;;;4.88;3.08;;;24.90;93.40;;;;;;5093140;28;20256;-49
2021/07/31 10:43:27;;;;;;;5.72;2.97;;;25.20;92.20;;;;;;5093326;28;20210;-48
2021/07/31 10:46:24;;;;;;;3.58;2.88;;;25.20;92.30;;;;;;5093348;28;20649;-52
2021/07/31 10:48:52;;;;;;;3.50;3.10;;;25.00;92.10;;;;;;5088284;28;20673;-51
2021/07/31 10:51:42;;;;;;;4.55;3.80;;;24.80;92.50;;;;;;5093298;28;20290;-51
2021/07/31 10:54:10;;;;;;;5.28;3.22;;;24.70;92.30;;;;;;5093250;28;20306;-51
2021/07/31 10:56:58;;;;;;;3.85;2.90;;;24.70;92.40;;;;;;5092836;28;20748;-51
2021/07/31 10:59:26;;;;;;;7.18;3.38;;;24.60;92.50;;;;;;5093197;28;20365;-54
2021/07/31 11:02:31;;;;;;;4.70;3.83;;;24.60;92.90;;;;;;5092668;28;20297;-49
2021/07/31 11:05:01;;;;;;;5.15;4.32;;;24.90;92.90;;;;;;5092565;28;20221;-50
2021/07/31 11:07:29;;;;;;;5.07;3.53;;;25.20;92.50;;;;;;5092868;28;20728;-51
2021/07/31 11:10:39;;;;;;;5.78;3.35;;;25.30;92.30;;;;;;5092803;28;20615;-49
2021/07/31 11:13:07;;;;;;;3.33;2.83;;;25.10;92.20;;;;;;5092180;28;20206;-49
2021/07/31 11:15:36;;;;;;;4.75;2.67;;;24.80;92.90;;;;;;5092004;28;20234;-53
2021/07/31 11:18:04;;;;;;;6.68;3.40;;;24.70;93.10;;;;;;5092519;28;20234;-51
2021/07/31 11:20:36;;;;;;;4.80;3.20;;;24.80;93.10;;;;;;5092198;28;20249;-49
2021/07/31 11:23:07;;;;;;;2.78;2.38;;;24.80;93.20;;;;;;5092473;28;20301;-53
2021/07/31 11:25:35;;;;;;;4.95;3.58;;;24.90;93.20;;;;;;5092401;28;20234;-51
2021/07/31 11:28:08;;;;;;;4.47;2.83;;;25.00;93.20;;;;;;5091966;28;20229;-48
2021/07/31 11:30:42;;;;;;;3.75;2.90;;;25.10;93.10;;;;;;5092346;28;20305;-52
2021/07/31 11:33:19;;;;;;;6.60;3.15;;;25.00;93.10;;;;;;5092418;28;20241;-55
2021/07/31 11:35:49;;;;;;;4.10;3.10;;;24.80;93.30;;;;;;5091778;28;20230;-48
2021/07/31 11:38:36;;;;;;;7.40;3.50;;;24.70;93.50;;;;;;5091035;28;20236;-52
2021/07/31 11:41:07;;;;;;;3.55;3.03;;;24.80;93.50;;;;;;5092100;28;20206;-49
2021/07/31 11:43:52;;;;;;;3.05;2.85;;;24.70;93.70;;;;;;5092300;28;20211;-49
2021/07/31 11:46:32;;;;;;;5.47;2.92;;;24.80;92.80;;;;;;5092308;28;20218;-54
2021/07/31 11:49:03;;;;;;;5.28;3.40;;;24.90;93.00;;;;;;5091904;28;20214;-51
2021/07/31 11:51:32;;;;;;;2.60;2.40;;;25.00;92.50;;;;;;5092016;28;20297;-51
2021/07/31 11:54:08;;;;;;;5.10;3.33;;;25.20;92.20;;;;;;5091811;28;20210;-50
2021/07/31 11:56:38;;;;;;;5.13;3.38;;;25.40;91.80;;;;;;5091973;28;20236;-51
2021/07/31 11:59:06;;;;;;;5.32;3.08;;;25.50;91.60;;;;;;5091867;28;20207;-51
2021/07/31 12:01:35;;;;;;;5.85;2.97;;;25.60;91.60;;;;;;5091840;28;20305;-51
2021/07/31 12:04:04;;;;;;;2.67;2.47;;;25.70;90.90;;;;;;5091506;28;20331;-53
2021/07/31 12:06:39;;;;;;;2.80;2.53;;;25.80;90.70;;;;;;5091298;28;20290;-52
2021/07/31 12:09:19;;;;;;;3.22;2.75;;;25.90;89.70;;;;;;5091465;28;20244;-50
2021/07/31 12:11:49;;;;;;;4.55;2.83;;;25.80;90.10;;;;;;5091921;28;20265;-50
2021/07/31 12:14:35;;;;;;;3.72;2.60;;;25.80;90.10;;;;;;5091494;28;20230;-48
2021/07/31 12:17:30;;;;;;;4.03;2.55;;;25.70;89.90;;;;;;5091196;28;20226;-51
2021/07/31 12:20:00;;;;;;;2.95;2.60;;;25.50;90.30;;;;;;5091141;28;20298;-53
2021/07/31 12:22:30;;;;;;;5.47;2.13;;;25.30;90.40;;;;;;5091216;28;20313;-50
2021/07/31 12:25:14;;;;;;;6.55;2.55;;;25.20;90.50;;;;;;5091208;28;20292;-51
2021/07/31 12:27:52;;;;;;;3.97;2.35;;;25.00;90.20;;;;;;5091209;28;20209;-49
2021/07/31 12:30:26;;;;;;;3.33;3.03;;;25.00;90.50;;;;;;5091776;28;20210;-50
2021/07/31 12:32:55;;;;;;;3.60;2.65;;;25.10;90.40;;;;;;5091412;28;20662;-54
2021/07/31 12:35:48;;;;;;;3.40;2.88;;;25.20;90.50;;;;;;5091688;28;20210;-53
2021/07/31 12:38:20;;;;;;;2.65;2.45;;;25.40;90.00;;;;;;5091117;28;20568;-53
2021/07/31 12:40:52;;;;;;;2.30;2.15;;;25.40;89.90;;;;;;5091603;28;20317;-53
2021/07/31 12:43:23;;;;;;;4.70;2.42;;;25.40;89.30;;;;;;5090964;28;20232;-49
2021/07/31 12:45:53;;;;;;;3.28;2.67;;;25.30;88.90;;;;;;5090737;28;20295;-51
2021/07/31 12:48:21;;;;;;;2.33;2.13;;;25.20;88.80;;;;;;5090825;28;20576;-52
2021/07/31 12:50:49;;;;;;;3.10;2.22;;;25.00;88.90;;;;;;5091030;28;20225;-50
2021/07/31 12:53:20;;;;;;;3.05;2.25;;;24.90;89.30;;;;;;5091055;28;20261;-49
2021/07/31 12:55:50;;;;;;;3.17;2.65;;;24.80;89.90;;;;;;5091061;28;20210;-52
2021/07/31 12:58:18;;;;;;;2.95;2.72;;;24.80;90.10;;;;;;5090663;28;20241;-55
2021/07/31 13:00:46;;;;;;;6.60;2.33;;;24.70;90.30;;;;;;5090455;28;20206;-46
2021/07/31 13:03:17;;;;;;;3.97;2.90;;;24.70;90.40;;;;;;5090524;28;20251;-49
2021/07/31 13:05:45;;;;;;;6.57;2.80;;;24.70;90.50;;;;;;5090304;28;20669;-51
2021/07/31 13:08:14;;;;;;;2.63;2.25;;;24.70;90.50;;;;;;5090555;28;20744;-52
2021/07/31 13:10:45;;;;;;;2.65;2.45;;;24.80;90.40;;;;;;5090383;28;20214;-52
2021/07/31 13:13:14;;;;;;;4.82;2.45;;;24.90;90.40;;;;;;5090572;28;20224;-53
2021/07/31 13:15:43;;;;;;;6.60;2.97;;;25.00;90.30;;;;;;5090458;28;20210;-51
2021/07/31 13:18:19;;;;;;;5.43;2.33;;;25.20;90.40;;;;;;5090743;28;20234;-53
2021/07/31 13:20:48;;;;;;;4.65;2.33;;;25.30;90.60;;;;;;5091142;28;20211;-51
2021/07/31 13:23:16;;;;;;;2.72;2.22;;;25.40;90.70;;;;;;5090892;28;20210;-50
2021/07/31 13:25:45;;;;;;;5.70;2.75;;;25.40;90.80;;;;;;5090365;28;20235;-50
2021/07/31 13:28:14;;;;;;;4.78;2.92;;;25.20;90.90;;;;;;5090669;28;20202;-53
2021/07/31 13:30:43;;;;;;;2.92;2.60;;;25.20;91.20;;;;;;5090538;28;20211;-51
2021/07/31 13:33:10;;;;;;;2.63;2.42;;;25.20;91.10;;;;;;5090354;28;20309;-48
2021/07/31 13:35:41;;;;;;;3.17;2.63;;;25.30;91.00;;;;;;5089686;28;20203;-52
2021/07/31 13:38:14;;;;;;;3.65;2.88;;;25.20;91.00;;;;;;5090558;28;20229;-49
2021/07/31 13:40:47;;;;;;;2.67;2.20;;;25.20;90.90;;;;;;5091186;28;20241;-51
2021/07/31 13:43:18;;;;;;;3.22;2.78;;;25.20;90.80;;;;;;5090399;28;20681;-52
2021/07/31 13:45:47;;;;;;;2.88;2.67;;;25.20;90.60;;;;;;5090037;28;20867;-51
2021/07/31 13:48:15;;;;;;;3.10;2.83;;;25.40;90.50;;;;;;5090334;28;20228;-50
2021/07/31 13:50:43;;;;;;;6.00;3.35;;;25.50;90.40;;;;;;5090149;28;20677;-52
2021/07/31 13:53:11;;;;;;;4.38;3.60;;;25.50;90.50;;;;;;5090016;28;20669;-52
2021/07/31 13:55:39;;;;;;;3.42;2.72;;;25.50;90.50;;;;;;5090034;28;20210;-49
2021/07/31 13:58:08;;;;;;;3.30;3.00;;;25.50;90.40;;;;;;5089808;28;20727;-52
2021/07/31 14:00:38;;;;;;;3.33;3.03;;;25.50;90.30;;;;;;5090022;28;20303;-50
2021/07/31 14:03:06;;;;;;;3.35;3.03;;;25.50;90.50;;;;;;5093096;28;20207;-52
2021/07/31 14:05:34;;;;;;;3.20;2.97;;;25.30;90.60;;;;;;5093725;28;20334;-53
